createdAt,value
2019-02-22T00:03:29.077Z,8.90
2019-02-22T00:06:16.981Z,8.90
2019-02-22T00:12:03.650Z,8.90
2019-02-22T00:14:51.564Z,8.90
2019-02-22T00:17:39.470Z,8.90
2019-02-22T00:20:27.456Z,8.90
2019-02-22T00:23:15.638Z,8.90
2019-02-22T00:26:15.212Z,8.90
2019-02-22T00:28:56.434Z,9.00
2019-02-22T00:31:36.918Z,9.00
2019-02-22T00:34:17.530Z,9.00
2019-02-22T00:36:58.290Z,8.90
2019-02-22T00:39:39.091Z,8.90
2019-02-22T00:42:19.390Z,8.90
2019-02-22T00:45:00.127Z,8.90
2019-02-22T00:47:40.727Z,9.00
2019-02-22T00:53:26.408Z,9.00
2019-02-22T00:56:06.966Z,9.00
2019-02-22T00:58:47.562Z,9.00
2019-02-22T01:01:28.075Z,9.00
2019-02-22T01:04:08.791Z,9.00
2019-02-22T01:06:49.632Z,9.00
2019-02-22T01:09:29.921Z,9.00
2019-02-22T01:12:10.566Z,9.00
2019-02-22T01:14:51.253Z,9.00
2019-02-22T01:17:31.977Z,9.00
2019-02-22T01:20:12.451Z,9.00
2019-02-22T01:22:52.943Z,9.00
2019-02-22T01:25:33.389Z,9.00
2019-02-22T01:28:14.200Z,9.00
2019-02-22T01:30:55.358Z,9.00
2019-02-22T01:33:35.856Z,9.00
2019-02-22T01:36:16.319Z,9.00
2019-02-22T01:38:57.047Z,9.00
2019-02-22T01:41:38.154Z,9.10
2019-02-22T01:44:19.121Z,9.10
2019-02-22T01:46:59.873Z,9.10
2019-02-22T01:49:40.419Z,9.10
2019-02-22T01:52:21.451Z,9.10
2019-02-22T01:55:02.227Z,9.10
2019-02-22T01:57:42.795Z,9.10
2019-02-22T02:00:23.416Z,9.10
2019-02-22T02:03:03.995Z,9.10
2019-02-22T02:05:44.371Z,9.10
2019-02-22T02:08:24.755Z,9.10
2019-02-22T02:11:05.740Z,9.10
2019-02-22T02:17:05.998Z,9.10
2019-02-22T02:19:46.638Z,9.10
2019-02-22T02:22:27.363Z,9.10
2019-02-22T02:25:08.031Z,9.10
2019-02-22T02:27:48.834Z,9.10
2019-02-22T02:30:29.755Z,9.10
2019-02-22T02:33:10.770Z,9.10
2019-02-22T02:35:51.751Z,9.10
2019-02-22T02:38:32.381Z,9.10
2019-02-22T02:41:13.374Z,9.10
2019-02-22T02:43:54.323Z,9.00
2019-02-22T02:46:34.923Z,9.00
2019-02-22T02:49:15.240Z,9.00
2019-02-22T02:51:55.678Z,9.00
2019-02-22T02:54:35.970Z,9.00
2019-02-22T02:57:16.811Z,9.00
2019-02-22T02:59:57.090Z,9.00
2019-02-22T03:02:37.552Z,9.00
2019-02-22T03:05:18.271Z,9.00
2019-02-22T03:08:00.094Z,9.00
2019-02-22T03:10:40.967Z,9.00
2019-02-22T03:13:21.650Z,8.90
2019-02-22T03:16:02.441Z,8.90
2019-02-22T03:18:43.286Z,8.90
2019-02-22T03:21:23.794Z,8.90
2019-02-22T03:24:06.654Z,8.90
2019-02-22T03:26:47.532Z,8.90
2019-02-22T03:29:28.470Z,8.90
2019-02-22T03:32:09.421Z,8.90
2019-02-22T03:34:50.031Z,8.90
2019-02-22T03:37:30.762Z,8.90
2019-02-22T03:40:11.226Z,8.90
2019-02-22T03:42:52.142Z,8.90
2019-02-22T03:45:33.065Z,8.90
2019-02-22T03:48:13.931Z,8.90
2019-02-22T03:50:54.755Z,8.90
2019-02-22T03:56:40.523Z,8.90
2019-02-22T03:59:21.310Z,8.90
2019-02-22T04:02:01.858Z,8.90
2019-02-22T04:04:42.831Z,8.90
2019-02-22T04:07:23.749Z,8.90
2019-02-22T04:10:04.702Z,8.90
2019-02-22T04:12:45.218Z,9.00
2019-02-22T04:15:25.579Z,9.00
2019-02-22T04:18:06.279Z,9.00
2019-02-22T04:20:46.866Z,9.00
2019-02-22T04:23:27.211Z,9.00
2019-02-22T04:26:07.570Z,9.00
2019-02-22T04:28:48.131Z,9.00
2019-02-22T04:31:28.904Z,9.00
2019-02-22T04:34:09.669Z,9.00
2019-02-22T04:36:50.494Z,9.00
2019-02-22T04:39:31.254Z,9.00
2019-02-22T04:42:11.698Z,9.00
2019-02-22T04:44:52.586Z,9.00
2019-02-22T04:47:33.191Z,9.00
2019-02-22T04:50:13.815Z,9.00
2019-02-22T04:52:54.375Z,9.00
2019-02-22T04:55:35.225Z,9.00
2019-02-22T04:58:15.849Z,9.00
2019-02-22T05:00:56.472Z,9.00
2019-02-22T05:03:36.858Z,8.90
2019-02-22T05:06:17.231Z,8.90
2019-02-22T05:08:57.946Z,8.90
2019-02-22T05:11:38.736Z,8.90
2019-02-22T05:14:19.379Z,8.80
2019-02-22T05:17:00.442Z,8.80
2019-02-22T05:19:41.157Z,8.80
2019-02-22T05:22:21.495Z,8.80
2019-02-22T05:25:02.318Z,8.80
2019-02-22T05:27:42.784Z,8.80
2019-02-22T05:30:23.547Z,8.80
2019-02-22T05:33:04.418Z,8.80
2019-02-22T05:35:45.209Z,8.80
2019-02-22T05:38:26.087Z,8.80
2019-02-22T05:41:06.753Z,8.90
2019-02-22T05:43:47.258Z,8.90
2019-02-22T05:46:27.627Z,8.90
2019-02-22T05:49:08.354Z,8.90
2019-02-22T05:51:48.923Z,8.90
2019-02-22T05:54:29.864Z,8.90
2019-02-22T05:57:10.620Z,8.90
2019-02-22T05:59:39.175Z,8.90
2019-02-22T06:02:27.046Z,8.90
2019-02-22T06:04:55.541Z,8.90
2019-02-22T06:07:43.490Z,8.90
2019-02-22T06:10:31.330Z,8.90
2019-02-22T06:13:19.213Z,8.90
2019-02-22T06:16:07.127Z,8.90
2019-02-22T06:18:55.011Z,8.90
2019-02-22T06:21:42.914Z,8.90
2019-02-22T06:24:23.694Z,8.90
2019-02-22T06:27:04.142Z,8.90
2019-02-22T06:29:44.430Z,8.90
2019-02-22T06:32:25.381Z,8.90
2019-02-22T06:35:08.696Z,8.90
2019-02-22T06:37:48.411Z,8.90
2019-02-22T06:40:29.107Z,8.90
2019-02-22T06:43:09.513Z,8.90
2019-02-22T06:45:50.051Z,8.90
2019-02-22T06:48:30.643Z,8.90
2019-02-22T06:51:11.567Z,8.90
2019-02-22T06:53:52.431Z,8.90
2019-02-22T06:56:33.399Z,9.00
2019-02-22T06:59:13.865Z,9.00
2019-02-22T07:01:54.725Z,9.00
2019-02-22T07:04:35.386Z,9.00
2019-02-22T07:07:15.914Z,9.00
2019-02-22T07:09:56.718Z,8.90
2019-02-22T07:12:38.958Z,8.90
2019-02-22T07:15:19.911Z,8.90
2019-02-22T07:18:00.522Z,8.90
2019-02-22T07:20:41.812Z,8.90
2019-02-22T07:23:23.125Z,8.90
2019-02-22T07:26:04.258Z,8.90
2019-02-22T07:28:45.081Z,8.90
2019-02-22T07:31:26.078Z,8.90
2019-02-22T07:34:06.868Z,8.90
2019-02-22T07:36:48.159Z,8.90
2019-02-22T07:39:29.398Z,8.80
2019-02-22T07:42:10.278Z,8.80
2019-02-22T07:44:51.102Z,8.80
2019-02-22T07:47:31.523Z,8.80
2019-02-22T07:50:12.119Z,8.80
2019-02-22T07:52:52.949Z,8.80
2019-02-22T07:55:33.661Z,8.80
2019-02-22T07:58:14.570Z,8.80
2019-02-22T08:00:55.398Z,8.80
2019-02-22T08:03:37.425Z,8.80
2019-02-22T08:06:37.802Z,8.80
2019-02-22T08:09:18.667Z,8.80
2019-02-22T08:11:59.743Z,8.80
2019-02-22T08:14:40.982Z,8.80
2019-02-22T08:17:21.714Z,8.90
2019-02-22T08:20:02.475Z,8.90
2019-02-22T08:22:43.566Z,8.90
2019-02-22T08:25:24.266Z,8.90
2019-02-22T08:28:04.937Z,9.00
2019-02-22T08:30:45.962Z,9.00
2019-02-22T08:33:26.706Z,9.00
2019-02-22T08:36:07.821Z,9.00
2019-02-22T08:38:48.406Z,9.10
2019-02-22T08:41:29.242Z,9.10
2019-02-22T08:44:09.670Z,9.10
2019-02-22T08:46:50.547Z,9.10
2019-02-22T08:49:31.306Z,9.10
2019-02-22T08:52:12.232Z,9.20
2019-02-22T08:54:52.966Z,9.20
2019-02-22T08:57:33.336Z,9.30
2019-02-22T09:00:14.230Z,9.30
2019-02-22T09:02:55.432Z,9.40
2019-02-22T09:05:35.726Z,9.40
2019-02-22T09:08:16.548Z,9.40
2019-02-22T09:11:00.455Z,9.40
2019-02-22T09:13:43.478Z,9.50
2019-02-22T09:16:22.490Z,9.50
2019-02-22T09:19:02.934Z,9.50
2019-02-22T09:21:44.195Z,9.60
2019-02-22T09:24:24.703Z,9.60
2019-02-22T09:27:05.347Z,9.60
2019-02-22T09:29:46.134Z,9.60
2019-02-22T09:32:26.844Z,9.70
2019-02-22T09:35:07.282Z,9.70
2019-02-22T09:37:48.274Z,9.70
2019-02-22T09:40:29.143Z,9.80
2019-02-22T09:43:09.689Z,9.80
2019-02-22T09:45:50.289Z,9.90
2019-02-22T09:48:30.895Z,9.90
2019-02-22T09:51:11.491Z,9.90
2019-02-22T09:53:52.379Z,10.00
2019-02-22T09:56:33.226Z,10.00
2019-02-22T09:59:14.294Z,10.00
2019-02-22T10:01:55.090Z,10.10
2019-02-22T10:04:35.770Z,10.10
2019-02-22T10:07:16.574Z,10.10
2019-02-22T10:09:57.329Z,10.10
2019-02-22T10:12:38.007Z,10.10
2019-02-22T10:15:18.818Z,10.10
2019-02-22T10:17:59.534Z,10.10
2019-02-22T10:20:40.566Z,10.10
2019-02-22T10:23:21.683Z,10.10
2019-02-22T10:26:02.424Z,10.10
2019-02-22T10:28:42.952Z,10.10
2019-02-22T10:31:23.818Z,10.10
2019-02-22T10:34:04.352Z,10.10
2019-02-22T10:36:45.566Z,10.10
2019-02-22T10:39:26.184Z,10.10
2019-02-22T10:42:06.640Z,10.10
2019-02-22T10:44:47.370Z,10.10
2019-02-22T10:47:27.847Z,10.10
2019-02-22T10:50:08.710Z,10.10
2019-02-22T10:52:49.269Z,10.00
2019-02-22T10:55:29.819Z,10.00
2019-02-22T10:58:10.380Z,10.00
2019-02-22T11:00:50.950Z,10.00
2019-02-22T11:03:31.405Z,10.00
2019-02-22T11:06:11.925Z,9.90
2019-02-22T11:08:52.550Z,9.90
2019-02-22T11:11:33.354Z,9.90
2019-02-22T11:14:14.197Z,9.90
2019-02-22T11:16:54.768Z,9.90
2019-02-22T11:19:35.333Z,9.90
2019-02-22T11:22:15.976Z,9.90
2019-02-22T11:24:56.498Z,9.90
2019-02-22T11:27:37.361Z,9.90
2019-02-22T11:30:18.244Z,10.00
2019-02-22T11:32:58.682Z,10.00
2019-02-22T11:35:39.398Z,10.00
2019-02-22T11:38:19.810Z,10.10
2019-02-22T11:41:00.407Z,10.10
2019-02-22T11:43:41.343Z,10.10
2019-02-22T11:46:21.687Z,10.20
2019-02-22T11:49:02.562Z,10.20
2019-02-22T11:51:43.669Z,10.20
2019-02-22T11:54:23.994Z,10.20
2019-02-22T11:57:04.982Z,10.30
2019-02-22T11:59:45.758Z,10.30
2019-02-22T12:02:26.464Z,10.40
2019-02-22T12:05:06.975Z,10.40
2019-02-22T12:07:48.170Z,10.50
2019-02-22T12:10:28.641Z,10.50
2019-02-22T12:13:08.934Z,10.50
2019-02-22T12:15:50.147Z,10.50
2019-02-22T12:18:30.845Z,10.40
2019-02-22T12:21:11.610Z,10.40
2019-02-22T12:23:52.987Z,10.40
2019-02-22T12:26:33.784Z,10.30
2019-02-22T12:29:14.439Z,10.30
2019-02-22T12:31:55.204Z,10.20
2019-02-22T12:34:35.892Z,10.20
2019-02-22T12:37:16.295Z,10.20
2019-02-22T12:39:57.013Z,10.20
2019-02-22T12:42:37.754Z,10.20
2019-02-22T12:45:18.298Z,10.20
2019-02-22T12:47:58.796Z,10.20
2019-02-22T12:50:39.498Z,10.20
2019-02-22T12:53:20.238Z,10.20
2019-02-22T12:56:01.059Z,10.20
2019-02-22T12:58:41.891Z,10.20
2019-02-22T13:01:24.555Z,10.20
2019-02-22T13:04:05.290Z,10.20
2019-02-22T13:06:46.106Z,10.20
2019-02-22T13:09:36.425Z,10.10
2019-02-22T13:12:13.931Z,10.10
2019-02-22T13:14:51.499Z,10.00
2019-02-22T13:17:32.247Z,10.00
2019-02-22T13:20:12.883Z,9.90
2019-02-22T13:22:53.286Z,9.90
2019-02-22T13:25:33.918Z,9.90
2019-02-22T13:28:14.730Z,9.90
2019-02-22T13:30:55.312Z,9.80
2019-02-22T13:33:35.620Z,9.70
2019-02-22T13:36:16.310Z,9.60
2019-02-22T13:38:56.713Z,9.60
2019-02-22T13:41:37.310Z,9.60
2019-02-22T13:44:18.202Z,9.50
2019-02-22T13:46:58.957Z,9.50
2019-02-22T13:49:39.767Z,9.50
2019-02-22T13:52:20.576Z,9.40
2019-02-22T13:55:00.963Z,9.40
2019-02-22T13:57:41.709Z,9.40
2019-02-22T14:00:22.493Z,9.30
2019-02-22T14:03:04.957Z,9.30
2019-02-22T14:05:45.636Z,9.40
2019-02-22T14:08:26.822Z,9.30
2019-02-22T14:11:07.523Z,9.20
2019-02-22T14:13:48.510Z,9.20
2019-02-22T14:16:29.766Z,9.10
2019-02-22T14:19:10.093Z,9.10
2019-02-22T14:21:50.983Z,9.20
2019-02-22T14:24:31.517Z,9.20
2019-02-22T14:27:12.022Z,9.20
2019-02-22T14:29:52.847Z,9.20
2019-02-22T14:32:33.699Z,9.20
2019-02-22T14:35:14.571Z,9.20
2019-02-22T14:37:55.236Z,9.20
2019-02-22T14:40:36.000Z,9.20
2019-02-22T14:43:17.115Z,9.20
2019-02-22T14:45:58.762Z,9.20
2019-02-22T14:48:39.510Z,9.20
2019-02-22T14:51:20.197Z,9.20
2019-02-22T14:54:00.727Z,9.10
2019-02-22T14:56:41.170Z,9.00
2019-02-22T14:59:22.111Z,9.00
2019-02-22T15:02:02.866Z,8.90
2019-02-22T15:04:43.491Z,8.90
2019-02-22T15:07:24.271Z,8.90
2019-02-22T15:10:05.026Z,8.90
2019-02-22T15:12:45.923Z,8.90
2019-02-22T15:15:28.138Z,8.90
2019-02-22T15:18:09.341Z,8.90
2019-02-22T15:20:49.826Z,8.80
2019-02-22T15:23:30.475Z,8.70
2019-02-22T15:26:11.018Z,8.60
2019-02-22T15:28:51.731Z,8.60
2019-02-22T15:31:36.101Z,8.50
2019-02-22T15:34:15.096Z,8.40
2019-02-22T15:36:55.778Z,8.30
2019-02-22T15:39:36.290Z,8.30
2019-02-22T15:42:16.564Z,8.30
2019-02-22T15:44:57.029Z,8.30
2019-02-22T15:47:37.348Z,8.30
2019-02-22T15:50:17.844Z,8.30
2019-02-22T15:52:58.459Z,8.20
2019-02-22T15:55:38.978Z,8.20
2019-02-22T15:58:19.487Z,8.10
2019-02-22T16:01:00.287Z,8.00
2019-02-22T16:04:00.145Z,8.00
2019-02-22T16:06:40.999Z,7.90
2019-02-22T16:09:21.862Z,7.80
2019-02-22T16:12:02.779Z,7.80
2019-02-22T16:14:43.374Z,7.80
2019-02-22T16:17:24.057Z,7.60
2019-02-22T16:20:05.023Z,7.60
2019-02-22T16:22:45.998Z,7.50
2019-02-22T16:25:26.730Z,7.50
2019-02-22T16:28:07.611Z,7.40
2019-02-22T16:30:48.147Z,7.40
2019-02-22T16:33:28.924Z,7.40
2019-02-22T16:36:09.690Z,7.30
2019-02-22T16:38:50.345Z,7.20
2019-02-22T16:41:30.934Z,7.20
2019-02-22T16:43:59.502Z,7.10
2019-02-22T16:46:47.374Z,7.00
2019-02-22T16:49:35.279Z,7.00
2019-02-22T16:52:23.164Z,6.80
2019-02-22T16:55:31.830Z,6.70
2019-02-22T16:58:19.706Z,6.70
2019-02-22T17:01:07.610Z,6.60
2019-02-22T17:03:55.530Z,6.60
2019-02-22T17:06:43.399Z,6.50
2019-02-22T17:09:33.243Z,6.50
2019-02-22T17:12:20.745Z,6.50
2019-02-22T17:15:27.969Z,6.50
2019-02-22T17:18:15.849Z,6.40
2019-02-22T17:21:03.749Z,6.40
2019-02-22T17:23:51.625Z,6.30
2019-02-22T17:26:31.915Z,6.30
2019-02-22T17:29:12.447Z,6.20
2019-02-22T17:31:52.702Z,6.10
2019-02-22T17:34:33.365Z,6.10
2019-02-22T17:37:14.264Z,6.00
2019-02-22T17:39:55.130Z,6.00
2019-02-22T17:42:36.014Z,6.00
2019-02-22T17:45:16.860Z,6.00
2019-02-22T17:47:57.256Z,6.00
2019-02-22T17:50:38.266Z,6.00
2019-02-22T17:53:19.058Z,6.00
2019-02-22T17:56:00.079Z,5.90
2019-02-22T17:58:40.890Z,6.00
2019-02-22T18:01:21.608Z,6.00
2019-02-22T18:04:02.150Z,6.00
2019-02-22T18:06:45.086Z,6.00
2019-02-22T18:09:24.732Z,6.00
2019-02-22T18:12:05.207Z,6.00
2019-02-22T18:14:45.725Z,6.00
2019-02-22T18:17:26.981Z,6.00
2019-02-22T18:20:07.953Z,5.90
2019-02-22T18:22:48.550Z,5.90
2019-02-22T18:25:29.255Z,5.90
2019-02-22T18:28:10.015Z,6.00
2019-02-22T18:30:50.622Z,6.00
2019-02-22T18:33:30.999Z,6.00
2019-02-22T18:36:11.698Z,5.90
2019-02-22T18:38:52.034Z,5.90
2019-02-22T18:41:32.831Z,5.90
2019-02-22T18:44:13.147Z,5.90
2019-02-22T18:46:54.078Z,5.90
2019-02-22T18:49:34.726Z,5.90
2019-02-22T18:52:15.546Z,5.90
2019-02-22T18:54:56.325Z,5.90
2019-02-22T18:57:36.667Z,5.80
2019-02-22T19:00:17.945Z,5.80
2019-02-22T19:02:58.614Z,5.80
2019-02-22T19:05:27.210Z,5.80
2019-02-22T19:08:15.150Z,5.70
2019-02-22T19:11:02.982Z,5.70
2019-02-22T19:13:50.858Z,5.80
2019-02-22T19:16:38.754Z,5.70
2019-02-22T19:19:07.319Z,5.70
2019-02-22T19:21:55.210Z,5.70
2019-02-22T19:24:43.092Z,5.70
2019-02-22T19:27:30.987Z,5.60
2019-02-22T19:30:39.514Z,5.60
2019-02-22T19:33:27.418Z,5.60
2019-02-22T19:36:15.321Z,5.50
2019-02-22T19:39:03.269Z,5.50
2019-02-22T19:45:22.119Z,5.50
2019-02-22T19:48:10.569Z,5.50
2019-02-22T19:50:58.417Z,5.50
2019-02-22T19:53:47.064Z,5.50
2019-02-22T19:56:36.253Z,5.50
2019-02-22T19:59:24.131Z,5.40
2019-02-22T20:02:12.343Z,5.40
2019-02-22T20:05:00.356Z,5.40
2019-02-22T20:07:48.595Z,5.30
2019-02-22T20:10:36.510Z,5.30
2019-02-22T20:13:24.464Z,5.20
2019-02-22T20:16:12.729Z,5.20
2019-02-22T20:22:07.722Z,5.10
2019-02-22T20:24:55.607Z,5.10
2019-02-22T20:27:36.836Z,5.10
2019-02-22T20:30:17.419Z,5.10
2019-02-22T20:32:58.358Z,5.00
2019-02-22T20:35:39.389Z,5.10
2019-02-22T20:38:20.214Z,5.00
2019-02-22T20:41:01.173Z,5.00
2019-02-22T20:46:50.385Z,4.90
2019-02-22T20:49:31.093Z,4.90
2019-02-22T20:52:11.910Z,4.90
2019-02-22T20:54:54.575Z,4.90
2019-02-22T20:57:35.726Z,4.80
2019-02-22T21:00:16.682Z,4.80
2019-02-22T21:02:57.082Z,4.80
2019-02-22T21:05:37.711Z,4.80
2019-02-22T21:08:18.379Z,4.70
2019-02-22T21:10:58.851Z,4.70
2019-02-22T21:13:39.595Z,4.70
2019-02-22T21:16:20.037Z,4.60
2019-02-22T21:19:01.037Z,4.60
2019-02-22T21:21:41.628Z,4.50
2019-02-22T21:24:22.466Z,4.50
2019-02-22T21:27:02.878Z,4.40
2019-02-22T21:29:43.629Z,4.40
2019-02-22T21:32:24.267Z,4.40
2019-02-22T21:35:04.792Z,4.30
2019-02-22T21:37:45.366Z,4.30
2019-02-22T21:40:26.202Z,4.30
2019-02-22T21:43:06.632Z,4.30
2019-02-22T21:45:47.641Z,4.30
2019-02-22T21:48:30.784Z,4.20
2019-02-22T21:54:30.379Z,4.20
2019-02-22T22:00:30.353Z,4.20
2019-02-22T22:03:10.963Z,4.20
2019-02-22T22:05:51.905Z,4.20
2019-02-22T22:08:32.526Z,4.20
2019-02-22T22:11:13.206Z,4.20
2019-02-22T22:13:53.838Z,4.20
2019-02-22T22:16:34.442Z,4.20
2019-02-22T22:22:23.817Z,4.30
2019-02-22T22:25:04.961Z,4.30
2019-02-22T22:27:46.153Z,4.30
2019-02-22T22:30:26.640Z,4.40
2019-02-22T22:36:24.390Z,4.40
2019-02-22T22:39:05.049Z,4.40
2019-02-22T22:41:45.558Z,4.40
2019-02-22T22:44:26.349Z,4.40
2019-02-22T22:50:26.267Z,4.50
2019-02-22T22:53:06.750Z,4.50
2019-02-22T22:55:47.735Z,4.50
2019-02-22T22:58:28.135Z,4.50
2019-02-22T23:01:10.314Z,4.50
2019-02-22T23:03:51.073Z,4.60
2019-02-22T23:09:37.098Z,4.60
2019-02-22T23:15:36.734Z,4.70
2019-02-22T23:18:17.306Z,4.70
2019-02-22T23:20:58.117Z,4.70
2019-02-22T23:23:38.815Z,4.70
2019-02-22T23:26:19.667Z,4.70
2019-02-22T23:29:01.831Z,4.70
2019-02-22T23:31:42.706Z,4.70
2019-02-22T23:34:23.262Z,4.70
2019-02-22T23:37:03.671Z,4.70
2019-02-22T23:39:44.285Z,4.70
2019-02-22T23:42:25.080Z,4.70
2019-02-22T23:45:05.465Z,4.70
2019-02-22T23:47:45.912Z,4.70
2019-02-22T23:50:26.715Z,4.70
2019-02-22T23:53:07.702Z,4.70
2019-02-22T23:55:48.202Z,4.70
2019-02-22T23:58:29.227Z,4.70
